Oregon II — WTDO — position and weather

sailwx.info

Track history (hours):
 
Tides and Currents Weather Stations Pressure Air Temp Water Temp Dewpoint Dewpoint Depression Visibility Wind Speed Wind Dir Waves Ship Positions

Oceanographic research ship Oregon II (USA)

Detailed information on ship capabilities available from University of Delaware's Ocean Information Center.

Last reported at 2017-Aug-13 14:21 UTC. Time now 2017-Aug-18 02:46 UTC.
Position N 25°29' W 080°01'.

Type: Other ship. MMSI: 303967000.

Date/timePositionNaut miles runAvg speedWind from/ knotsBaromVisibWave heightAir tempDewpointWater temp
2017-Aug-13 14:21N 25°29' W 080°01'3 7.7
2017-Aug-13 14:00N 25°32' W 080°02'4 7.3
2017-Aug-13 13:30N 25°35' W 080°01'4 7.5
2017-Aug-13 13:00N 25°39' W 080°02'4 7.6
2017-Aug-13 12:30N 25°43' W 080°02'4 8.3
2017-Aug-13 12:00N 25°47' W 080°02'4 8.5
2017-Aug-13 11:31N 25°51' W 080°01'4 8.7
2017-Aug-13 11:00N 25°55' W 079°60'5 9.4
2017-Aug-13 10:31N 25°60' W 079°60'4 8.8
2017-Aug-13 10:00N 26°04' W 079°60'4 8.9
2017-Aug-13 09:31N 26°09' W 079°59'5 9.0
2017-Aug-13 09:00N 26°13' W 079°59'4 9.0
2017-Aug-13 08:30N 26°18' W 079°59'4 8.9
2017-Aug-13 08:00N 26°22' W 079°59'4 8.9
2017-Aug-13 07:30N 26°27' W 079°59'5 9.1
2017-Aug-13 06:59N 26°31' W 079°58'4 8.6
2017-Aug-13 06:30N 26°35' W 079°58'13 9.0
2017-Aug-13 05:05N 26°48' W 079°58'1 9.6
2017-Aug-13 04:59N 26°49' W 079°58'4 9.0
2017-Aug-13 04:31N 26°54' W 079°58'4 8.1
2017-Aug-13 04:01N 26°58' W 079°58'4 7.7
2017-Aug-13 03:30N 27°01' W 079°59'  
2017-Aug-08 23:14N 31°39' W 080°40'3 5.8
2017-Aug-08 22:39N 31°41' W 080°37'1 6.2
2017-Aug-08 22:30N 31°42' W 080°36'  
Track history (hours):
 
Tides and Currents Weather Stations Pressure Air Temp Water Temp Dewpoint Dewpoint Depression Visibility Wind Speed Wind Dir Waves Ship Positions

Oceanographic research ship Oregon II (USA)

Detailed information on ship capabilities available from University of Delaware's Ocean Information Center.

Last reported at 2017-Aug-13 14:21 UTC. Time now 2017-Aug-18 02:46 UTC.
Position N 25°29' W 080°01'.

Type: Other ship. MMSI: 303967000.

Date/timePositionNaut miles runAvg speedWind from/ knotsBaromVisibWave heightAir tempDewpointWater temp
2017-Aug-13 14:21N 25°29' W 080°01'3 7.7
2017-Aug-13 14:00N 25°32' W 080°02'4 7.3
2017-Aug-13 13:30N 25°35' W 080°01'4 7.5
2017-Aug-13 13:00N 25°39' W 080°02'4 7.6
2017-Aug-13 12:30N 25°43' W 080°02'4 8.3
2017-Aug-13 12:00N 25°47' W 080°02'4 8.5
2017-Aug-13 11:31N 25°51' W 080°01'4 8.7
2017-Aug-13 11:00N 25°55' W 079°60'5 9.4
2017-Aug-13 10:31N 25°60' W 079°60'4 8.8
2017-Aug-13 10:00N 26°04' W 079°60'4 8.9
2017-Aug-13 09:31N 26°09' W 079°59'5 9.0
2017-Aug-13 09:00N 26°13' W 079°59'4 9.0
2017-Aug-13 08:30N 26°18' W 079°59'4 8.9
2017-Aug-13 08:00N 26°22' W 079°59'4 8.9
2017-Aug-13 07:30N 26°27' W 079°59'5 9.1
2017-Aug-13 06:59N 26°31' W 079°58'4 8.6
2017-Aug-13 06:30N 26°35' W 079°58'13 9.0
2017-Aug-13 05:05N 26°48' W 079°58'1 9.6
2017-Aug-13 04:59N 26°49' W 079°58'4 9.0
2017-Aug-13 04:31N 26°54' W 079°58'4 8.1
2017-Aug-13 04:01N 26°58' W 079°58'4 7.7
2017-Aug-13 03:30N 27°01' W 079°59'  
2017-Aug-08 23:14N 31°39' W 080°40'3 5.8
2017-Aug-08 22:39N 31°41' W 080°37'1 6.2
2017-Aug-08 22:30N 31°42' W 080°36'  

Dump ship's entire track history